Lister — ZDHW6 — position and weather

sailwx.info

Track history (hours):
 
Tides and Currents Weather Stations Pressure Air Temp Water Temp Dewpoint Dewpoint Depression Visibility Wind Speed Wind Dir Waves Ship Positions

Lister

Last reported at 2015-Apr-17 10:11 UTC. Time now 2015-Apr-18 13:17 UTC.
Position N 54°50' E 011°29'.

Length 89 m; draft 4 m.

Type: Ship. MMSI: 236381000.

Date/timePositionNaut miles runAvg speedWind from/ knotsBaromVisibWave heightAir tempDewpointWater temp
2015-Apr-17 10:11N 54°50' E 011°29'1 1.9
2015-Apr-17 09:33N 54°51' E 011°30'  
2015-Apr-10 08:29N 55°15' E 011°02'0 0.0
2015-Apr-10 06:23N 55°15' E 011°02'0 0.0
2015-Apr-10 05:32N 55°15' E 011°02'0 0.0
2015-Apr-10 04:26N 55°15' E 011°02'0 0.0
2015-Apr-10 03:14N 55°15' E 011°02'0 0.0
2015-Apr-10 02:14N 55°15' E 011°02'22 1.7
2015-Apr-09 13:05N 54°54' E 010°56'11 7.0
2015-Apr-09 11:28N 54°43' E 010°53'4 3.8
2015-Apr-09 10:29N 54°40' E 010°48'4 3.8
2015-Apr-09 09:33N 54°38' E 010°43'4 4.3
2015-Apr-09 08:33N 54°36' E 010°37'4 4.5
2015-Apr-09 07:33N 54°34' E 010°29'5 5.1
2015-Apr-09 06:33N 54°33' E 010°21'2 1.8
2015-Apr-09 05:34N 54°32' E 010°18'4 3.7
2015-Apr-09 04:33N 54°29' E 010°16'8 8.1
2015-Apr-09 03:33N 54°22' E 010°08'3 3.3
2015-Apr-09 02:33N 54°22' E 010°03'9 7.8
2015-Apr-09 01:25N 54°22' E 009°47'13 7.0
2015-Apr-08 23:30N 54°12' E 009°32'14 6.3
2015-Apr-08 21:21N 54°01' E 009°18'7 8.4
2015-Apr-08 20:33N 53°55' E 009°12'3 2.6
2015-Apr-08 19:33N 53°53' E 009°10'1212.1
2015-Apr-08 18:33N 53°45' E 009°25'1211.9
2015-Apr-08 17:33N 53°35' E 009°37'1110.6
2015-Apr-08 16:33N 53°33' E 009°54'2 2.1
2015-Apr-08 15:27N 53°32' E 009°58'0 0.0
2015-Apr-08 14:27N 53°32' E 009°58'0 0.0
2015-Apr-08 13:28N 53°32' E 009°58'0 0.0
2015-Apr-08 12:27N 53°32' E 009°58'0 0.0
2015-Apr-08 11:28N 53°32' E 009°58'0 0.0
2015-Apr-08 10:28N 53°32' E 009°58'0 0.0
2015-Apr-08 09:33N 53°32' E 009°58'0 0.0
2015-Apr-08 08:33N 53°32' E 009°58'0 0.0
2015-Apr-08 07:34N 53°32' E 009°58'0 0.0
2015-Apr-08 06:33N 53°32' E 009°58'0 0.0
2015-Apr-08 05:33N 53°32' E 009°58'0 0.0
2015-Apr-08 03:32N 53°32' E 009°58'0 0.0
2015-Apr-08 02:23N 53°32' E 009°58'0 0.0
2015-Apr-08 01:31N 53°32' E 009°58'0 0.0
2015-Apr-08 00:27N 53°32' E 009°58'0 0.0
2015-Apr-07 23:33N 53°32' E 009°58'0 0.0
2015-Apr-07 22:33N 53°32' E 009°58'0 0.0
2015-Apr-07 21:33N 53°32' E 009°58'0 0.0
2015-Apr-07 20:33N 53°32' E 009°58'0 0.0
2015-Apr-07 19:33N 53°32' E 009°58'0 0.0
2015-Apr-07 18:28N 53°32' E 009°58'0 0.0
2015-Apr-07 17:33N 53°32' E 009°58'0 0.0
2015-Apr-07 16:34N 53°32' E 009°58'0 0.0
2015-Apr-07 15:31N 53°32' E 009°58'0 0.0
2015-Apr-07 14:34N 53°32' E 009°58'0 0.0
2015-Apr-07 13:34N 53°32' E 009°58'0 0.0
2015-Apr-07 12:31N 53°32' E 009°58'0 0.0
2015-Apr-07 11:31N 53°32' E 009°58'0 0.0
2015-Apr-07 10:27N 53°32' E 009°58'  
Track history (hours):
 
Tides and Currents Weather Stations Pressure Air Temp Water Temp Dewpoint Dewpoint Depression Visibility Wind Speed Wind Dir Waves Ship Positions

Lister

Last reported at 2015-Apr-17 10:11 UTC. Time now 2015-Apr-18 13:17 UTC.
Position N 54°50' E 011°29'.

Length 89 m; draft 4 m.

Type: Ship. MMSI: 236381000.

Date/timePositionNaut miles runAvg speedWind from/ knotsBaromVisibWave heightAir tempDewpointWater temp
2015-Apr-17 10:11N 54°50' E 011°29'1 1.9
2015-Apr-17 09:33N 54°51' E 011°30'  
2015-Apr-10 08:29N 55°15' E 011°02'0 0.0
2015-Apr-10 06:23N 55°15' E 011°02'0 0.0
2015-Apr-10 05:32N 55°15' E 011°02'0 0.0
2015-Apr-10 04:26N 55°15' E 011°02'0 0.0
2015-Apr-10 03:14N 55°15' E 011°02'0 0.0
2015-Apr-10 02:14N 55°15' E 011°02'22 1.7
2015-Apr-09 13:05N 54°54' E 010°56'11 7.0
2015-Apr-09 11:28N 54°43' E 010°53'4 3.8
2015-Apr-09 10:29N 54°40' E 010°48'4 3.8
2015-Apr-09 09:33N 54°38' E 010°43'4 4.3
2015-Apr-09 08:33N 54°36' E 010°37'4 4.5
2015-Apr-09 07:33N 54°34' E 010°29'5 5.1
2015-Apr-09 06:33N 54°33' E 010°21'2 1.8
2015-Apr-09 05:34N 54°32' E 010°18'4 3.7
2015-Apr-09 04:33N 54°29' E 010°16'8 8.1
2015-Apr-09 03:33N 54°22' E 010°08'3 3.3
2015-Apr-09 02:33N 54°22' E 010°03'9 7.8
2015-Apr-09 01:25N 54°22' E 009°47'13 7.0
2015-Apr-08 23:30N 54°12' E 009°32'14 6.3
2015-Apr-08 21:21N 54°01' E 009°18'7 8.4
2015-Apr-08 20:33N 53°55' E 009°12'3 2.6
2015-Apr-08 19:33N 53°53' E 009°10'1212.1
2015-Apr-08 18:33N 53°45' E 009°25'1211.9
2015-Apr-08 17:33N 53°35' E 009°37'1110.6
2015-Apr-08 16:33N 53°33' E 009°54'2 2.1
2015-Apr-08 15:27N 53°32' E 009°58'0 0.0
2015-Apr-08 14:27N 53°32' E 009°58'0 0.0
2015-Apr-08 13:28N 53°32' E 009°58'0 0.0
2015-Apr-08 12:27N 53°32' E 009°58'0 0.0
2015-Apr-08 11:28N 53°32' E 009°58'0 0.0
2015-Apr-08 10:28N 53°32' E 009°58'0 0.0
2015-Apr-08 09:33N 53°32' E 009°58'0 0.0
2015-Apr-08 08:33N 53°32' E 009°58'0 0.0
2015-Apr-08 07:34N 53°32' E 009°58'0 0.0
2015-Apr-08 06:33N 53°32' E 009°58'0 0.0
2015-Apr-08 05:33N 53°32' E 009°58'0 0.0
2015-Apr-08 03:32N 53°32' E 009°58'0 0.0
2015-Apr-08 02:23N 53°32' E 009°58'0 0.0
2015-Apr-08 01:31N 53°32' E 009°58'0 0.0
2015-Apr-08 00:27N 53°32' E 009°58'0 0.0
2015-Apr-07 23:33N 53°32' E 009°58'0 0.0
2015-Apr-07 22:33N 53°32' E 009°58'0 0.0
2015-Apr-07 21:33N 53°32' E 009°58'0 0.0
2015-Apr-07 20:33N 53°32' E 009°58'0 0.0
2015-Apr-07 19:33N 53°32' E 009°58'0 0.0
2015-Apr-07 18:28N 53°32' E 009°58'0 0.0
2015-Apr-07 17:33N 53°32' E 009°58'0 0.0
2015-Apr-07 16:34N 53°32' E 009°58'0 0.0
2015-Apr-07 15:31N 53°32' E 009°58'0 0.0
2015-Apr-07 14:34N 53°32' E 009°58'0 0.0
2015-Apr-07 13:34N 53°32' E 009°58'0 0.0
2015-Apr-07 12:31N 53°32' E 009°58'0 0.0
2015-Apr-07 11:31N 53°32' E 009°58'0 0.0
2015-Apr-07 10:27N 53°32' E 009°58'  

Dump ship's entire track history